sensor_id;sensor_type;location;lat;lon;timestamp;temperature;humidity
21282;DHT22;10800;53.096;18.328;2022-11-14T00:04:32;8.50;99.90
21282;DHT22;10800;53.096;18.328;2022-11-14T00:09:51;8.40;99.90
21282;DHT22;10800;53.096;18.328;2022-11-14T00:15:09;8.30;99.90
21282;DHT22;10800;53.096;18.328;2022-11-14T00:20:20;8.20;99.90
21282;DHT22;10800;53.096;18.328;2022-11-14T00:25:32;8.20;99.90
21282;DHT22;10800;53.096;18.328;2022-11-14T00:30:58;8.20;99.90
21282;DHT22;10800;53.096;18.328;2022-11-14T00:36:25;8.20;99.90
21282;DHT22;10800;53.096;18.328;2022-11-14T00:42:16;8.20;99.90
21282;DHT22;10800;53.096;18.328;2022-11-14T00:47:33;8.10;99.90
21282;DHT22;10800;53.096;18.328;2022-11-14T00:52:55;8.10;99.90
21282;DHT22;10800;53.096;18.328;2022-11-14T00:58:28;8.10;99.90
21282;DHT22;10800;53.096;18.328;2022-11-14T01:03:39;8.10;99.90
21282;DHT22;10800;53.096;18.328;2022-11-14T01:08:52;8.10;99.90
21282;DHT22;10800;53.096;18.328;2022-11-14T01:14:05;8.10;99.90
21282;DHT22;10800;53.096;18.328;2022-11-14T01:19:15;8.00;99.90
21282;DHT22;10800;53.096;18.328;2022-11-14T01:24:24;7.90;99.90
21282;DHT22;10800;53.096;18.328;2022-11-14T01:29:39;7.90;99.90
21282;DHT22;10800;53.096;18.328;2022-11-14T01:34:47;7.80;99.90
21282;DHT22;10800;53.096;18.328;2022-11-14T01:39:59;7.70;99.90
21282;DHT22;10800;53.096;18.328;2022-11-14T01:45:55;7.70;99.90
21282;DHT22;10800;53.096;18.328;2022-11-14T01:57:15;7.70;99.90
21282;DHT22;10800;53.096;18.328;2022-11-14T02:09:02;7.70;99.90
21282;DHT22;10800;53.096;18.328;2022-11-14T02:59:58;7.60;99.90
21282;DHT22;10800;53.096;18.328;2022-11-14T04:20:12;7.40;99.90
21282;DHT22;10800;53.096;18.328;2022-11-14T04:32:24;7.40;99.90
21282;DHT22;10800;53.096;18.328;2022-11-14T04:38:15;7.40;99.90
21282;DHT22;10800;53.096;18.328;2022-11-14T05:01:14;7.40;99.90
21282;DHT22;10800;53.096;18.328;2022-11-14T05:12:55;7.40;99.90
21282;DHT22;10800;53.096;18.328;2022-11-14T05:24:31;7.40;99.90
21282;DHT22;10800;53.096;18.328;2022-11-14T05:29:42;7.30;99.90
21282;DHT22;10800;53.096;18.328;2022-11-14T05:34:48;7.20;99.90
21282;DHT22;10800;53.096;18.328;2022-11-14T05:39:54;7.20;99.90
21282;DHT22;10800;53.096;18.328;2022-11-14T05:44:59;7.20;99.90
21282;DHT22;10800;53.096;18.328;2022-11-14T05:50:19;7.20;99.90
21282;DHT22;10800;53.096;18.328;2022-11-14T05:55:33;7.20;99.90
21282;DHT22;10800;53.096;18.328;2022-11-14T06:00:42;7.20;99.90
21282;DHT22;10800;53.096;18.328;2022-11-14T06:05:55;7.20;99.90
21282;DHT22;10800;53.096;18.328;2022-11-14T06:11:06;7.20;99.90
21282;DHT22;10800;53.096;18.328;2022-11-14T06:27:30;7.20;99.90
21282;DHT22;10800;53.096;18.328;2022-11-14T06:32:48;7.20;99.90
21282;DHT22;10800;53.096;18.328;2022-11-14T06:38:00;7.20;99.90
21282;DHT22;10800;53.096;18.328;2022-11-14T06:43:15;7.20;99.90
21282;DHT22;10800;53.096;18.328;2022-11-14T06:48:43;7.30;99.90
21282;DHT22;10800;53.096;18.328;2022-11-14T06:53:57;7.20;99.90
21282;DHT22;10800;53.096;18.328;2022-11-14T06:59:22;7.20;99.90
21282;DHT22;10800;53.096;18.328;2022-11-14T07:04:57;7.20;99.90
21282;DHT22;10800;53.096;18.328;2022-11-14T07:10:26;7.10;99.90
21282;DHT22;10800;53.096;18.328;2022-11-14T07:15:35;7.10;99.90
21282;DHT22;10800;53.096;18.328;2022-11-14T07:20:58;7.10;99.90
21282;DHT22;10800;53.096;18.328;2022-11-14T07:26:08;7.10;99.90
21282;DHT22;10800;53.096;18.328;2022-11-14T07:31:15;7.10;99.90
21282;DHT22;10800;53.096;18.328;2022-11-14T07:36:27;7.10;99.90
21282;DHT22;10800;53.096;18.328;2022-11-14T07:41:32;7.10;99.90
21282;DHT22;10800;53.096;18.328;2022-11-14T07:46:43;7.10;99.90
21282;DHT22;10800;53.096;18.328;2022-11-14T07:51:49;7.10;99.90
21282;DHT22;10800;53.096;18.328;2022-11-14T07:56:55;7.10;99.90
21282;DHT22;10800;53.096;18.328;2022-11-14T08:02:02;7.10;99.90
21282;DHT22;10800;53.096;18.328;2022-11-14T08:07:11;7.10;99.90
21282;DHT22;10800;53.096;18.328;2022-11-14T08:12:17;7.10;99.90
21282;DHT22;10800;53.096;18.328;2022-11-14T08:17:23;7.10;99.90
21282;DHT22;10800;53.096;18.328;2022-11-14T08:22:31;7.00;99.90
21282;DHT22;10800;53.096;18.328;2022-11-14T08:27:40;7.00;99.90
21282;DHT22;10800;53.096;18.328;2022-11-14T08:32:46;7.10;99.90
21282;DHT22;10800;53.096;18.328;2022-11-14T08:37:51;7.00;99.90
21282;DHT22;10800;53.096;18.328;2022-11-14T08:43:02;7.00;99.90
21282;DHT22;10800;53.096;18.328;2022-11-14T08:48:11;7.00;99.90
21282;DHT22;10800;53.096;18.328;2022-11-14T08:53:19;7.10;99.90
21282;DHT22;10800;53.096;18.328;2022-11-14T08:58:27;7.10;99.90
21282;DHT22;10800;53.096;18.328;2022-11-14T09:03:34;7.10;99.90
21282;DHT22;10800;53.096;18.328;2022-11-14T09:08:41;7.00;99.90
21282;DHT22;10800;53.096;18.328;2022-11-14T09:13:47;7.10;99.90
21282;DHT22;10800;53.096;18.328;2022-11-14T09:18:53;7.10;99.90
21282;DHT22;10800;53.096;18.328;2022-11-14T09:23:59;7.00;99.90
21282;DHT22;10800;53.096;18.328;2022-11-14T09:29:05;7.10;99.90
21282;DHT22;10800;53.096;18.328;2022-11-14T09:34:13;7.10;99.90
21282;DHT22;10800;53.096;18.328;2022-11-14T09:39:18;7.20;99.90
21282;DHT22;10800;53.096;18.328;2022-11-14T09:44:40;7.20;99.90
21282;DHT22;10800;53.096;18.328;2022-11-14T09:49:45;7.30;99.90
21282;DHT22;10800;53.096;18.328;2022-11-14T09:54:55;7.20;99.90
21282;DHT22;10800;53.096;18.328;2022-11-14T10:00:00;7.30;99.90
21282;DHT22;10800;53.096;18.328;2022-11-14T10:15:57;7.30;99.90
21282;DHT22;10800;53.096;18.328;2022-11-14T10:21:03;7.40;99.90
21282;DHT22;10800;53.096;18.328;2022-11-14T10:26:28;7.50;99.90
21282;DHT22;10800;53.096;18.328;2022-11-14T10:42:02;7.70;99.90
21282;DHT22;10800;53.096;18.328;2022-11-14T10:47:13;7.60;99.90
21282;DHT22;10800;53.096;18.328;2022-11-14T10:52:21;7.70;99.90
21282;DHT22;10800;53.096;18.328;2022-11-14T10:57:27;7.70;99.90
21282;DHT22;10800;53.096;18.328;2022-11-14T11:02:53;7.70;99.90
21282;DHT22;10800;53.096;18.328;2022-11-14T11:07:59;7.70;99.90
21282;DHT22;10800;53.096;18.328;2022-11-14T11:13:30;7.70;99.90
21282;DHT22;10800;53.096;18.328;2022-11-14T11:18:36;7.70;99.90
21282;DHT22;10800;53.096;18.328;2022-11-14T11:23:55;7.80;99.90
21282;DHT22;10800;53.096;18.328;2022-11-14T11:34:24;7.90;99.90
21282;DHT22;10800;53.096;18.328;2022-11-14T11:39:32;7.90;99.90
21282;DHT22;10800;53.096;18.328;2022-11-14T11:44:42;8.00;99.90
21282;DHT22;10800;53.096;18.328;2022-11-14T11:49:50;7.90;99.90
21282;DHT22;10800;53.096;18.328;2022-11-14T12:00:16;7.90;99.90
21282;DHT22;10800;53.096;18.328;2022-11-14T12:05:25;8.00;99.90
21282;DHT22;10800;53.096;18.328;2022-11-14T12:10:33;8.00;99.90
21282;DHT22;10800;53.096;18.328;2022-11-14T12:21:09;8.00;99.90
21282;DHT22;10800;53.096;18.328;2022-11-14T12:31:44;8.00;99.90
21282;DHT22;10800;53.096;18.328;2022-11-14T12:36:50;8.00;99.90
21282;DHT22;10800;53.096;18.328;2022-11-14T12:42:04;8.10;99.90
21282;DHT22;10800;53.096;18.328;2022-11-14T12:47:21;8.00;99.90
21282;DHT22;10800;53.096;18.328;2022-11-14T12:52:46;8.00;99.90
21282;DHT22;10800;53.096;18.328;2022-11-14T12:58:06;7.90;99.90
21282;DHT22;10800;53.096;18.328;2022-11-14T13:08:44;7.90;99.90
21282;DHT22;10800;53.096;18.328;2022-11-14T13:14:01;7.90;99.90
21282;DHT22;10800;53.096;18.328;2022-11-14T13:19:25;8.00;99.90
21282;DHT22;10800;53.096;18.328;2022-11-14T13:30:11;8.00;99.90
21282;DHT22;10800;53.096;18.328;2022-11-14T13:35:56;7.90;99.90
21282;DHT22;10800;53.096;18.328;2022-11-14T13:41:32;7.80;99.90
21282;DHT22;10800;53.096;18.328;2022-11-14T13:51:50;7.80;99.90
21282;DHT22;10800;53.096;18.328;2022-11-14T14:03:05;7.80;99.90
21282;DHT22;10800;53.096;18.328;2022-11-14T14:13:36;7.90;99.90
21282;DHT22;10800;53.096;18.328;2022-11-14T14:18:56;7.90;99.90
21282;DHT22;10800;53.096;18.328;2022-11-14T14:29:28;7.90;99.90
21282;DHT22;10800;53.096;18.328;2022-11-14T14:34:35;7.90;99.90
21282;DHT22;10800;53.096;18.328;2022-11-14T14:39:57;7.90;99.90
21282;DHT22;10800;53.096;18.328;2022-11-14T14:45:15;7.90;99.90
21282;DHT22;10800;53.096;18.328;2022-11-14T14:50:46;7.80;99.90
21282;DHT22;10800;53.096;18.328;2022-11-14T14:55:56;7.80;99.90
21282;DHT22;10800;53.096;18.328;2022-11-14T15:01:00;7.80;99.90
21282;DHT22;10800;53.096;18.328;2022-11-14T15:06:35;7.70;99.90
21282;DHT22;10800;53.096;18.328;2022-11-14T15:11:33;7.70;99.90
21282;DHT22;10800;53.096;18.328;2022-11-14T15:16:39;7.70;99.90
21282;DHT22;10800;53.096;18.328;2022-11-14T15:21:55;7.70;99.90
21282;DHT22;10800;53.096;18.328;2022-11-14T15:26:53;7.70;99.90
21282;DHT22;10800;53.096;18.328;2022-11-14T15:32:14;7.70;99.90
21282;DHT22;10800;53.096;18.328;2022-11-14T15:37:35;7.60;99.90
21282;DHT22;10800;53.096;18.328;2022-11-14T15:48:00;7.70;99.90
21282;DHT22;10800;53.096;18.328;2022-11-14T15:53:22;7.60;99.90
21282;DHT22;10800;53.096;18.328;2022-11-14T15:58:28;7.60;99.90
21282;DHT22;10800;53.096;18.328;2022-11-14T16:03:33;7.60;99.90
21282;DHT22;10800;53.096;18.328;2022-11-14T16:08:39;7.60;99.90
21282;DHT22;10800;53.096;18.328;2022-11-14T16:13:44;7.60;99.90
21282;DHT22;10800;53.096;18.328;2022-11-14T16:18:49;7.50;99.90
21282;DHT22;10800;53.096;18.328;2022-11-14T16:23:55;7.40;99.90
21282;DHT22;10800;53.096;18.328;2022-11-14T16:29:01;7.40;99.90
21282;DHT22;10800;53.096;18.328;2022-11-14T16:34:06;7.40;99.90
21282;DHT22;10800;53.096;18.328;2022-11-14T16:39:13;7.40;99.90
21282;DHT22;10800;53.096;18.328;2022-11-14T16:44:19;7.30;99.90
21282;DHT22;10800;53.096;18.328;2022-11-14T16:49:24;7.30;99.90
21282;DHT22;10800;53.096;18.328;2022-11-14T16:54:30;7.30;99.90
21282;DHT22;10800;53.096;18.328;2022-11-14T16:59:37;7.20;99.90
21282;DHT22;10800;53.096;18.328;2022-11-14T17:04:43;7.20;99.90
21282;DHT22;10800;53.096;18.328;2022-11-14T17:09:49;7.20;99.90
21282;DHT22;10800;53.096;18.328;2022-11-14T17:14:54;7.20;99.90
21282;DHT22;10800;53.096;18.328;2022-11-14T17:20:00;7.20;99.90
21282;DHT22;10800;53.096;18.328;2022-11-14T17:25:05;7.20;99.90
21282;DHT22;10800;53.096;18.328;2022-11-14T17:30:12;7.20;99.90
21282;DHT22;10800;53.096;18.328;2022-11-14T17:35:16;7.10;99.90
21282;DHT22;10800;53.096;18.328;2022-11-14T17:40:22;7.10;99.90
21282;DHT22;10800;53.096;18.328;2022-11-14T17:45:27;7.10;99.90
21282;DHT22;10800;53.096;18.328;2022-11-14T17:50:36;7.10;99.90
21282;DHT22;10800;53.096;18.328;2022-11-14T17:55:43;7.10;99.90
21282;DHT22;10800;53.096;18.328;2022-11-14T18:00:49;7.10;99.90
21282;DHT22;10800;53.096;18.328;2022-11-14T18:06:09;7.00;99.90
21282;DHT22;10800;53.096;18.328;2022-11-14T18:11:16;7.00;99.90
21282;DHT22;10800;53.096;18.328;2022-11-14T18:16:27;6.80;99.90
21282;DHT22;10800;53.096;18.328;2022-11-14T18:21:34;6.70;99.90
21282;DHT22;10800;53.096;18.328;2022-11-14T18:26:51;6.70;99.90
21282;DHT22;10800;53.096;18.328;2022-11-14T18:32:06;6.70;99.90
21282;DHT22;10800;53.096;18.328;2022-11-14T18:37:34;6.70;99.90
21282;DHT22;10800;53.096;18.328;2022-11-14T18:43:01;6.60;99.90
21282;DHT22;10800;53.096;18.328;2022-11-14T18:48:18;6.50;99.90
21282;DHT22;10800;53.096;18.328;2022-11-14T18:53:51;6.50;99.90
21282;DHT22;10800;53.096;18.328;2022-11-14T18:59:02;6.50;99.90
21282;DHT22;10800;53.096;18.328;2022-11-14T19:04:11;6.50;99.90
21282;DHT22;10800;53.096;18.328;2022-11-14T19:09:17;6.50;99.90
21282;DHT22;10800;53.096;18.328;2022-11-14T19:14:31;6.50;99.90
21282;DHT22;10800;53.096;18.328;2022-11-14T19:19:37;6.60;99.90
21282;DHT22;10800;53.096;18.328;2022-11-14T19:24:43;6.60;99.90
21282;DHT22;10800;53.096;18.328;2022-11-14T19:29:51;6.50;99.90
21282;DHT22;10800;53.096;18.328;2022-11-14T19:34:58;6.50;99.90
21282;DHT22;10800;53.096;18.328;2022-11-14T19:40:11;6.50;99.90
21282;DHT22;10800;53.096;18.328;2022-11-14T19:51:08;6.60;99.90
21282;DHT22;10800;53.096;18.328;2022-11-14T19:56:10;6.60;99.90
21282;DHT22;10800;53.096;18.328;2022-11-14T20:01:22;6.60;99.90
21282;DHT22;10800;53.096;18.328;2022-11-14T20:06:41;6.60;99.90
21282;DHT22;10800;53.096;18.328;2022-11-14T20:11:47;6.50;99.90
21282;DHT22;10800;53.096;18.328;2022-11-14T20:16:52;6.50;99.90
21282;DHT22;10800;53.096;18.328;2022-11-14T20:21:57;6.50;99.90
21282;DHT22;10800;53.096;18.328;2022-11-14T20:27:03;6.50;99.90
21282;DHT22;10800;53.096;18.328;2022-11-14T20:32:08;6.50;99.90
21282;DHT22;10800;53.096;18.328;2022-11-14T20:37:15;6.50;99.90
21282;DHT22;10800;53.096;18.328;2022-11-14T20:42:21;6.50;99.90
21282;DHT22;10800;53.096;18.328;2022-11-14T20:47:28;6.50;99.90
21282;DHT22;10800;53.096;18.328;2022-11-14T20:52:34;6.50;99.90
21282;DHT22;10800;53.096;18.328;2022-11-14T20:57:41;6.60;99.90
21282;DHT22;10800;53.096;18.328;2022-11-14T21:02:46;6.60;99.90
21282;DHT22;10800;53.096;18.328;2022-11-14T21:07:52;6.60;99.90
21282;DHT22;10800;53.096;18.328;2022-11-14T21:12:57;6.60;99.90
21282;DHT22;10800;53.096;18.328;2022-11-14T21:18:20;6.60;99.90
21282;DHT22;10800;53.096;18.328;2022-11-14T21:23:26;6.60;99.90
21282;DHT22;10800;53.096;18.328;2022-11-14T21:28:33;6.60;99.90
21282;DHT22;10800;53.096;18.328;2022-11-14T21:33:38;6.60;99.90
21282;DHT22;10800;53.096;18.328;2022-11-14T21:38:44;6.60;99.90
21282;DHT22;10800;53.096;18.328;2022-11-14T21:43:57;6.60;99.90
21282;DHT22;10800;53.096;18.328;2022-11-14T21:49:03;6.60;99.90
21282;DHT22;10800;53.096;18.328;2022-11-14T21:54:08;6.70;99.90
21282;DHT22;10800;53.096;18.328;2022-11-14T21:59:15;6.60;99.90
21282;DHT22;10800;53.096;18.328;2022-11-14T22:04:22;6.70;99.90
21282;DHT22;10800;53.096;18.328;2022-11-14T22:09:28;6.70;99.90
21282;DHT22;10800;53.096;18.328;2022-11-14T22:14:34;6.70;99.90
21282;DHT22;10800;53.096;18.328;2022-11-14T22:19:39;6.70;99.90
21282;DHT22;10800;53.096;18.328;2022-11-14T22:24:44;6.70;99.90
21282;DHT22;10800;53.096;18.328;2022-11-14T22:29:50;6.70;99.90
21282;DHT22;10800;53.096;18.328;2022-11-14T22:34:55;6.70;99.90
21282;DHT22;10800;53.096;18.328;2022-11-14T22:40:00;6.70;99.90
21282;DHT22;10800;53.096;18.328;2022-11-14T22:45:06;6.70;99.90
21282;DHT22;10800;53.096;18.328;2022-11-14T22:50:12;6.70;99.90
21282;DHT22;10800;53.096;18.328;2022-11-14T22:55:18;6.60;99.90
21282;DHT22;10800;53.096;18.328;2022-11-14T23:00:24;6.60;99.90
21282;DHT22;10800;53.096;18.328;2022-11-14T23:05:34;6.60;99.90
21282;DHT22;10800;53.096;18.328;2022-11-14T23:10:40;6.60;99.90
21282;DHT22;10800;53.096;18.328;2022-11-14T23:15:46;6.60;99.90
21282;DHT22;10800;53.096;18.328;2022-11-14T23:20:51;6.60;99.90
21282;DHT22;10800;53.096;18.328;2022-11-14T23:26:02;6.60;99.90
21282;DHT22;10800;53.096;18.328;2022-11-14T23:31:11;6.50;99.90
21282;DHT22;10800;53.096;18.328;2022-11-14T23:36:15;6.50;99.90
21282;DHT22;10800;53.096;18.328;2022-11-14T23:41:23;6.40;99.90
21282;DHT22;10800;53.096;18.328;2022-11-14T23:46:30;6.40;99.90
21282;DHT22;10800;53.096;18.328;2022-11-14T23:51:35;6.40;99.90
21282;DHT22;10800;53.096;18.328;2022-11-14T23:56:41;6.30;99.90
